Gary Chicago International Airport
KGYY : now visible

Airfield :











YOU CAN JOIN US ON...

 
LOGIN :

Register | Disclaimer

   EN    FR    IT 

 









Legend :    VFR   Marginal VFR   IFR   Intensive IFR   Very Intensive IFR
Visi :
Ceiling :
>= 8 km
>= 3000ft
5 to 8 km
1000 to 3000 ft
1500m to 5 km
500 to 1000 ft
800 to 1500m
200 to 500 ft
< 800m
< 200 ft
Symbols :   Thunderstorms  Fog  Heavy snow  Heavy precipitations  Wind > 20 kt






- Airport Elevation : 591 ft
- IATA code : GYY


KGYY - Gary Chicago International

CURRENT METAR :
  • 221045Z 27006KT 5SM SCT070 M01/M03 A3010

EXPIRED METARs :
  • 220945Z 00000KT 1SM OVC007 M04/M05 A3010
  • 220915Z AUTO 00000KT 1SM BR SCT080 M03/M04 A3009 RMK AO2 T10351041
  • 220855Z AUTO 00000KT 3/4SM BR VV005 M03/M04 A3008 RMK AO2 T10321038
  • 220835Z AUTO 00000KT 2 1/2SM BR CLR M04/M04 A3008 RMK AO2 T10371045
  • 220815Z AUTO 00000KT 2 1/2SM BR CLR M03/M03 A3008 RMK AO2 T10281034
  • 220755Z AUTO 00000KT 3SM BR CLR M03/M04 A3008 RMK AO2 T10311040

TAF KGYY
Valid from the 22 at 09:00 until the 23 at 06:00 UTC


220854Z 2209/2306 26005KT 6SM BR SCT070
TEMPO 2209/2212 3SM BR
FM221500 28012G22KT P6SM SCT060
FM230100 24009KT P6SM SCT200
KZAU FIR / North America



MET'MAP, your aeronautical weather chart ! - Copyright ORBIFLY December 2007 - Disclaimer

ORBIFLY MET'MAP TEAM :

Programming & Development : Alexandra Zaïnal
Concept & original design : Baudouin d'Aumeries
Assistance for programming : Marc-Olivier Méhu
Technical & hardware support : Manuel Goepfert

Contact : metmap@orbifly.com




SOURCES & CREDITS :

   NOAA       Earth
Advisory